createdAt,value
2022-08-16T00:02:31.173Z,5.22
2022-08-16T00:05:00.040Z,4.82
2022-08-16T00:07:29.145Z,5.10
2022-08-16T00:09:56.800Z,5.05
2022-08-16T00:12:24.127Z,5.32
2022-08-16T00:14:50.938Z,5.75
2022-08-16T00:17:24.279Z,5.75
2022-08-16T00:19:53.614Z,5.65
2022-08-16T00:22:24.951Z,6.03
2022-08-16T00:24:53.453Z,6.45
2022-08-16T00:27:21.114Z,6.30
2022-08-16T00:29:48.105Z,6.57
2022-08-16T00:32:28.165Z,6.90
2022-08-16T00:35:00.648Z,7.10
2022-08-16T00:37:56.841Z,7.50
2022-08-16T00:40:34.707Z,6.63
2022-08-16T00:43:12.113Z,6.60
2022-08-16T00:45:57.820Z,7.22
2022-08-16T00:48:30.417Z,7.07
2022-08-16T00:50:57.304Z,7.47
2022-08-16T00:53:23.993Z,6.75
2022-08-16T00:55:54.200Z,7.28
2022-08-16T00:58:34.910Z,6.90
2022-08-16T01:01:02.604Z,6.80
2022-08-16T01:03:30.029Z,7.80
2022-08-16T01:05:57.162Z,6.90
2022-08-16T01:08:35.846Z,6.90
2022-08-16T01:11:04.041Z,6.75
2022-08-16T01:13:34.723Z,7.07
2022-08-16T01:16:10.119Z,6.95
2022-08-16T01:18:44.620Z,6.55
2022-08-16T01:21:14.604Z,6.43
2022-08-16T01:24:51.552Z,5.57
2022-08-16T01:27:03.859Z,6.30
2022-08-16T01:29:58.445Z,6.18
2022-08-16T01:32:33.386Z,5.80
2022-08-16T01:35:02.211Z,5.65
2022-08-16T01:37:35.736Z,6.35
2022-08-16T01:40:07.221Z,6.60
2022-08-16T01:42:34.126Z,7.43
2022-08-16T01:45:00.663Z,8.38
2022-08-16T01:47:29.413Z,8.05
2022-08-16T01:50:42.371Z,7.88
2022-08-16T01:52:46.778Z,7.70
2022-08-16T01:55:14.460Z,7.65
2022-08-16T01:57:53.666Z,6.75
2022-08-16T02:00:29.147Z,7.30
2022-08-16T02:02:56.881Z,6.25
2022-08-16T02:05:23.609Z,6.93
2022-08-16T02:07:52.028Z,6.63
2022-08-16T02:10:19.153Z,6.35
2022-08-16T02:12:51.142Z,6.20
2022-08-16T02:15:25.899Z,6.25
2022-08-16T02:17:54.175Z,5.95
2022-08-16T02:20:25.906Z,6.45
2022-08-16T02:22:55.333Z,6.28
2022-08-16T02:25:22.263Z,5.55
2022-08-16T02:27:51.032Z,6.43
2022-08-16T02:30:35.715Z,6.03
2022-08-16T02:33:05.390Z,6.70
2022-08-16T02:35:33.050Z,6.28
2022-08-16T02:38:08.564Z,6.32
2022-08-16T02:40:35.838Z,7.45
2022-08-16T02:43:02.831Z,6.60
2022-08-16T02:45:29.498Z,8.02
2022-08-16T02:48:01.161Z,7.35
2022-08-16T02:50:54.152Z,7.60
2022-08-16T02:53:30.441Z,7.43
2022-08-16T02:55:56.918Z,6.70
2022-08-16T02:58:25.070Z,7.18
2022-08-16T03:00:55.669Z,7.75
2022-08-16T03:03:23.119Z,8.00
2022-08-16T03:05:52.494Z,8.20
2022-08-16T03:08:50.589Z,7.65
2022-08-16T03:11:16.931Z,7.47
2022-08-16T03:13:56.491Z,7.35
2022-08-16T03:16:33.061Z,7.55
2022-08-16T03:19:06.737Z,7.28
2022-08-16T03:21:37.823Z,7.80
2022-08-16T03:24:06.487Z,8.30
2022-08-16T03:26:53.152Z,8.18
2022-08-16T03:29:19.634Z,7.53
2022-08-16T03:31:46.804Z,7.97
2022-08-16T03:34:19.138Z,8.20
2022-08-16T03:36:47.194Z,7.47
2022-08-16T03:39:15.040Z,7.57
2022-08-16T03:41:50.241Z,7.78
2022-08-16T03:44:40.672Z,9.07
2022-08-16T03:47:05.089Z,8.02
2022-08-16T03:49:37.428Z,8.07
2022-08-16T03:52:04.334Z,8.15
2022-08-16T03:54:30.973Z,8.63
2022-08-16T03:56:58.573Z,8.38
2022-08-16T03:59:25.925Z,8.98
2022-08-16T04:01:56.877Z,8.38
2022-08-16T04:04:32.850Z,8.48
2022-08-16T04:07:03.411Z,9.10
2022-08-16T04:09:35.421Z,8.27
2022-08-16T04:12:11.358Z,8.30
2022-08-16T04:14:52.633Z,8.02
2022-08-16T04:17:20.919Z,8.10
2022-08-16T04:19:47.542Z,8.18
2022-08-16T04:22:19.538Z,8.23
2022-08-16T04:24:54.793Z,8.63
2022-08-16T04:27:22.200Z,9.18
2022-08-16T04:29:52.460Z,8.55
2022-08-16T04:32:19.659Z,8.38
2022-08-16T04:34:47.435Z,8.30
2022-08-16T04:37:14.489Z,8.68
2022-08-16T04:39:46.938Z,9.07
2022-08-16T04:42:17.609Z,8.52
2022-08-16T04:44:54.320Z,9.18
2022-08-16T04:47:33.493Z,9.35
2022-08-16T04:50:08.921Z,9.52
2022-08-16T04:52:36.200Z,9.52
2022-08-16T04:55:09.574Z,8.90
2022-08-16T04:57:38.672Z,8.68
2022-08-16T05:00:30.445Z,9.18
2022-08-16T05:02:58.850Z,9.40
2022-08-16T05:05:32.883Z,8.65
2022-08-16T05:08:28.945Z,8.88
2022-08-16T05:11:00.194Z,10.60
2022-08-16T05:13:41.312Z,9.77
2022-08-16T05:16:23.278Z,10.48
2022-08-16T05:18:52.708Z,9.93
2022-08-16T05:21:20.845Z,10.38
2022-08-16T05:23:55.597Z,8.98
2022-08-16T05:26:24.411Z,10.70
2022-08-16T05:28:55.335Z,12.23
2022-08-16T05:31:29.831Z,10.50
2022-08-16T05:34:00.707Z,10.50
2022-08-16T05:36:33.931Z,10.15
2022-08-16T05:39:05.688Z,10.32
2022-08-16T05:41:32.436Z,11.52
2022-08-16T05:44:00.339Z,10.57
2022-08-16T05:46:32.546Z,12.38
2022-08-16T05:49:08.908Z,13.45
2022-08-16T05:51:40.289Z,11.40
2022-08-16T05:54:11.162Z,13.82
2022-08-16T05:56:39.335Z,12.13
2022-08-16T05:59:06.905Z,13.55
2022-08-16T06:01:38.089Z,13.20
2022-08-16T06:04:13.691Z,12.60
2022-08-16T06:06:56.865Z,11.77
2022-08-16T06:09:25.869Z,11.82
2022-08-16T06:12:27.022Z,12.48
2022-08-16T06:14:59.530Z,12.20
2022-08-16T06:17:41.739Z,11.00
2022-08-16T06:20:34.684Z,12.00
2022-08-16T06:23:04.142Z,13.02
2022-08-16T06:25:39.508Z,12.57
2022-08-16T06:28:09.578Z,13.35
2022-08-16T06:30:43.446Z,13.10
2022-08-16T06:33:12.456Z,14.07
2022-08-16T06:35:40.356Z,13.48
2022-08-16T06:38:07.272Z,13.00
2022-08-16T06:40:53.767Z,12.30
2022-08-16T06:43:21.361Z,12.95
2022-08-16T06:45:54.396Z,12.05
2022-08-16T06:48:21.316Z,13.48
2022-08-16T06:50:59.733Z,13.30
2022-08-16T06:53:26.412Z,12.13
2022-08-16T06:55:58.665Z,11.57
2022-08-16T06:58:31.507Z,12.13
2022-08-16T07:01:00.190Z,12.20
2022-08-16T07:03:32.352Z,13.95
2022-08-16T07:06:03.386Z,12.68
2022-08-16T07:08:29.905Z,12.80
2022-08-16T07:10:58.720Z,11.70
2022-08-16T07:14:00.744Z,12.77
2022-08-16T07:16:15.467Z,14.20
2022-08-16T07:18:58.822Z,14.15
2022-08-16T07:21:28.148Z,17.95
2022-08-16T07:24:30.324Z,16.35
2022-08-16T07:26:58.885Z,16.45
2022-08-16T07:29:27.499Z,17.10
2022-08-16T07:31:58.867Z,19.27
2022-08-16T07:34:35.345Z,19.52
2022-08-16T07:37:10.742Z,20.95
2022-08-16T07:39:43.299Z,13.98
2022-08-16T07:42:11.083Z,14.10
2022-08-16T07:44:55.430Z,13.63
2022-08-16T07:47:24.687Z,11.52
2022-08-16T07:49:58.809Z,11.07
2022-08-16T07:52:29.945Z,11.57
2022-08-16T07:54:57.864Z,11.07
2022-08-16T07:57:25.102Z,10.93
2022-08-16T07:59:53.008Z,10.98
2022-08-16T08:02:20.941Z,10.10
2022-08-16T08:04:48.201Z,9.88
2022-08-16T08:07:16.157Z,10.07
2022-08-16T08:09:43.902Z,8.77
2022-08-16T08:12:43.754Z,9.60
2022-08-16T08:14:57.814Z,9.65
2022-08-16T08:17:24.383Z,9.80
2022-08-16T08:20:23.846Z,9.40
2022-08-16T08:22:53.942Z,9.77
2022-08-16T08:25:54.082Z,9.52
2022-08-16T08:28:16.301Z,8.95
2022-08-16T08:30:44.128Z,7.65
2022-08-16T08:33:18.995Z,9.10
2022-08-16T08:35:46.177Z,8.68
2022-08-16T08:38:15.822Z,9.23
2022-08-16T08:41:02.687Z,7.97
2022-08-16T08:43:29.840Z,8.10
2022-08-16T08:46:17.867Z,8.05
2022-08-16T08:48:59.961Z,7.63
2022-08-16T08:51:35.809Z,7.75
2022-08-16T08:54:09.495Z,5.90
2022-08-16T08:56:37.699Z,5.57
2022-08-16T08:59:19.900Z,7.30
2022-08-16T09:01:57.363Z,6.20
2022-08-16T09:04:24.421Z,6.20
2022-08-16T09:06:53.527Z,6.28
2022-08-16T09:09:20.477Z,5.32
2022-08-16T09:11:53.750Z,6.95
2022-08-16T09:14:31.377Z,6.25
2022-08-16T09:17:01.519Z,6.55
2022-08-16T09:19:33.890Z,6.53
2022-08-16T09:22:00.681Z,6.25
2022-08-16T09:24:39.176Z,6.68
2022-08-16T09:27:13.668Z,4.65
2022-08-16T09:29:45.758Z,5.30
2022-08-16T09:32:25.602Z,4.78
2022-08-16T09:34:58.322Z,5.82
2022-08-16T09:37:29.122Z,5.05
2022-08-16T09:39:59.721Z,5.88
2022-08-16T09:42:28.425Z,4.97
2022-08-16T09:45:12.620Z,5.18
2022-08-16T09:47:56.311Z,4.30
2022-08-16T09:50:26.851Z,4.57
2022-08-16T09:53:05.094Z,5.40
2022-08-16T09:55:33.317Z,4.20
2022-08-16T09:58:12.311Z,5.07
2022-08-16T10:00:57.572Z,4.40
2022-08-16T10:03:27.411Z,4.38
2022-08-16T10:05:56.923Z,4.40
2022-08-16T10:08:26.442Z,4.47
2022-08-16T10:11:12.197Z,4.55
2022-08-16T10:13:39.494Z,3.85
2022-08-16T10:18:56.308Z,4.57
2022-08-16T10:21:23.702Z,4.30
2022-08-16T10:23:53.653Z,3.95
2022-08-16T10:27:18.695Z,3.90
2022-08-16T10:29:11.334Z,3.50
2022-08-16T10:31:46.140Z,3.50
2022-08-16T10:34:31.843Z,3.80
2022-08-16T10:37:00.539Z,3.80
2022-08-16T10:39:40.839Z,3.75
2022-08-16T10:42:09.924Z,3.83
2022-08-16T10:44:36.555Z,3.45
2022-08-16T10:47:03.809Z,4.05
2022-08-16T10:49:31.694Z,3.40
2022-08-16T10:52:01.677Z,3.30
2022-08-16T10:54:30.860Z,3.58
2022-08-16T10:57:04.513Z,3.60
2022-08-16T10:59:38.378Z,3.50
2022-08-16T11:03:37.433Z,3.42
2022-08-16T11:05:08.134Z,3.50
2022-08-16T11:07:45.559Z,3.45
2022-08-16T11:17:00.958Z,3.10
2022-08-16T11:19:05.925Z,3.03
2022-08-16T11:22:22.916Z,3.00
2022-08-16T11:24:41.871Z,3.33
2022-08-16T11:27:23.271Z,2.97
2022-08-16T11:29:53.415Z,2.95
2022-08-16T11:32:31.957Z,3.03
2022-08-16T11:35:10.884Z,2.92
2022-08-16T11:40:32.784Z,2.80
2022-08-16T11:43:01.275Z,2.72
2022-08-16T11:45:27.917Z,2.85
2022-08-16T11:48:00.402Z,2.85
2022-08-16T11:50:27.241Z,2.90
2022-08-16T11:52:53.834Z,2.88
2022-08-16T11:55:23.651Z,3.28
2022-08-16T11:57:51.500Z,2.85
2022-08-16T12:00:34.188Z,2.90
2022-08-16T12:03:10.371Z,2.40
2022-08-16T12:05:39.563Z,2.50
2022-08-16T12:08:07.404Z,2.55
2022-08-16T12:10:36.429Z,2.97
2022-08-16T12:13:03.062Z,2.75
2022-08-16T12:15:30.984Z,2.58
2022-08-16T12:17:57.740Z,2.72
2022-08-16T12:20:29.743Z,2.70
2022-08-16T12:22:56.932Z,3.17
2022-08-16T12:25:28.657Z,3.28
2022-08-16T12:27:56.906Z,3.55
2022-08-16T12:30:32.247Z,3.20
2022-08-16T12:33:02.936Z,3.05
2022-08-16T12:35:31.966Z,3.42
2022-08-16T12:37:59.930Z,3.10
2022-08-16T12:40:31.564Z,3.35
2022-08-16T12:43:00.882Z,2.95
2022-08-16T12:45:30.852Z,2.70
2022-08-16T12:48:33.758Z,3.08
2022-08-16T12:51:03.178Z,2.88
2022-08-16T12:53:32.077Z,2.75
2022-08-16T12:55:59.230Z,2.50
2022-08-16T12:58:49.468Z,2.60
2022-08-16T13:01:13.948Z,2.55
2022-08-16T13:03:41.493Z,2.42
2022-08-16T13:06:08.625Z,2.83
2022-08-16T13:08:35.266Z,2.70
2022-08-16T13:11:04.446Z,3.00
2022-08-16T13:13:35.348Z,2.90
2022-08-16T13:16:15.299Z,2.92
2022-08-16T13:18:52.413Z,2.80
2022-08-16T13:21:19.672Z,2.35
2022-08-16T13:23:51.208Z,2.67
2022-08-16T13:26:22.990Z,2.85
2022-08-16T13:28:49.966Z,2.67
2022-08-16T13:31:16.890Z,2.58
2022-08-16T13:33:43.553Z,2.45
2022-08-16T13:36:26.127Z,2.25
2022-08-16T13:38:59.558Z,2.47
2022-08-16T13:41:27.019Z,2.50
2022-08-16T13:43:59.203Z,2.58
2022-08-16T13:46:27.019Z,2.25
2022-08-16T13:48:53.603Z,2.70
2022-08-16T13:51:20.519Z,2.58
2022-08-16T13:53:54.751Z,2.22
2022-08-16T13:56:34.512Z,2.72
2022-08-16T13:59:06.174Z,2.15
2022-08-16T14:01:43.968Z,2.35
2022-08-16T14:04:18.934Z,2.40
2022-08-16T14:06:52.730Z,2.35
2022-08-16T14:09:20.240Z,2.20
2022-08-16T14:11:46.748Z,2.30
2022-08-16T14:14:16.508Z,2.33
2022-08-16T14:16:44.657Z,2.20
2022-08-16T14:19:13.757Z,2.40
2022-08-16T14:21:53.429Z,2.58
2022-08-16T14:24:30.525Z,2.30
2022-08-16T14:26:57.695Z,2.30
2022-08-16T14:29:24.185Z,2.17
2022-08-16T14:31:58.128Z,2.42
2022-08-16T14:34:25.560Z,2.30
2022-08-16T14:36:53.054Z,2.60
2022-08-16T14:39:21.883Z,2.58
2022-08-16T14:41:48.583Z,2.60
2022-08-16T14:44:19.900Z,2.33
2022-08-16T14:46:46.715Z,2.35
2022-08-16T14:49:14.345Z,2.50
2022-08-16T14:51:40.890Z,2.30
2022-08-16T14:54:11.165Z,2.28
2022-08-16T14:56:42.751Z,2.38
2022-08-16T14:59:13.227Z,2.50
2022-08-16T15:01:57.460Z,2.33
2022-08-16T15:04:32.336Z,2.53
2022-08-16T15:07:10.813Z,2.45
2022-08-16T15:09:44.416Z,2.70
2022-08-16T15:12:26.897Z,2.40
2022-08-16T15:14:57.854Z,2.60
2022-08-16T15:17:27.531Z,2.42
2022-08-16T15:20:01.378Z,2.70
2022-08-16T15:22:30.766Z,2.10
2022-08-16T15:25:05.552Z,2.85
2022-08-16T15:27:44.081Z,2.22
2022-08-16T15:30:48.125Z,2.22
2022-08-16T15:33:07.827Z,2.25
2022-08-16T15:35:38.696Z,2.55
2022-08-16T15:38:09.283Z,2.40
2022-08-16T15:40:37.113Z,2.38
2022-08-16T15:43:23.503Z,2.60
2022-08-16T15:46:35.790Z,2.30
2022-08-16T15:49:06.149Z,2.92
2022-08-16T15:51:34.282Z,2.40
2022-08-16T15:54:30.081Z,2.90
2022-08-16T15:56:51.471Z,3.10
2022-08-16T15:59:19.238Z,2.60
2022-08-16T16:01:46.726Z,2.65
2022-08-16T16:04:14.967Z,2.63
2022-08-16T16:06:54.958Z,3.13
2022-08-16T16:09:34.548Z,3.13
2022-08-16T16:12:16.207Z,2.60
2022-08-16T16:14:51.573Z,2.78
2022-08-16T16:17:18.011Z,2.85
2022-08-16T16:19:44.468Z,2.85
2022-08-16T16:22:16.325Z,2.78
2022-08-16T16:24:46.946Z,2.90
2022-08-16T16:27:14.021Z,2.40
2022-08-16T16:29:42.615Z,2.78
2022-08-16T16:32:13.392Z,2.60
2022-08-16T16:34:43.179Z,3.00
2022-08-16T16:37:10.351Z,2.95
2022-08-16T16:39:37.629Z,3.00
2022-08-16T16:42:04.983Z,2.80
2022-08-16T16:44:32.098Z,2.83
2022-08-16T16:47:02.923Z,3.13
2022-08-16T16:49:29.805Z,3.15
2022-08-16T16:52:04.042Z,2.88
2022-08-16T16:54:35.660Z,2.70
2022-08-16T16:57:02.410Z,3.00
2022-08-16T16:59:29.267Z,2.97
2022-08-16T17:02:38.479Z,3.13
2022-08-16T17:04:45.493Z,2.63
2022-08-16T17:07:14.034Z,3.30
2022-08-16T17:09:41.124Z,2.75
2022-08-16T17:12:09.508Z,3.03
2022-08-16T17:14:38.557Z,2.95
2022-08-16T17:17:09.582Z,2.75
2022-08-16T17:19:40.883Z,2.63
2022-08-16T17:22:14.633Z,2.88
2022-08-16T17:24:45.140Z,2.80
2022-08-16T17:27:12.320Z,2.97
2022-08-16T17:29:46.079Z,3.40
2022-08-16T17:32:33.858Z,2.92
2022-08-16T17:35:03.054Z,3.10
2022-08-16T17:37:50.895Z,2.90
2022-08-16T17:40:45.714Z,2.85
2022-08-16T17:43:14.456Z,2.88
2022-08-16T17:45:42.454Z,2.80
2022-08-16T17:48:09.675Z,2.90
2022-08-16T17:50:36.334Z,2.70
2022-08-16T17:53:04.052Z,3.20
2022-08-16T17:55:33.620Z,2.90
2022-08-16T17:58:00.390Z,2.80
2022-08-16T18:00:28.482Z,2.95
2022-08-16T18:02:59.456Z,2.80
2022-08-16T18:05:28.124Z,3.20
2022-08-16T18:07:55.122Z,2.97
2022-08-16T18:10:33.456Z,3.05
2022-08-16T18:13:03.456Z,2.83
2022-08-16T18:15:30.914Z,3.10
2022-08-16T18:17:57.392Z,3.00
2022-08-16T18:20:42.630Z,3.20
2022-08-16T18:23:21.816Z,3.00
2022-08-16T18:25:52.803Z,4.28
2022-08-16T18:28:20.206Z,4.30
2022-08-16T18:30:51.475Z,4.07
2022-08-16T18:33:19.461Z,3.65
2022-08-16T18:35:46.020Z,3.35
2022-08-16T18:38:12.658Z,3.45
2022-08-16T18:40:40.186Z,3.50
2022-08-16T18:43:09.751Z,3.22
2022-08-16T18:45:39.077Z,3.40
2022-08-16T18:48:06.422Z,2.90
2022-08-16T18:51:03.167Z,3.15
2022-08-16T18:53:22.119Z,3.00
2022-08-16T18:55:49.411Z,3.25
2022-08-16T18:58:16.283Z,3.17
2022-08-16T19:00:56.653Z,3.17
2022-08-16T19:03:29.974Z,3.20
2022-08-16T19:05:58.071Z,3.30
2022-08-16T19:08:24.897Z,3.15
2022-08-16T19:10:51.683Z,3.65
2022-08-16T19:13:20.961Z,2.97
2022-08-16T19:15:48.916Z,3.30
2022-08-16T19:18:15.542Z,3.40
2022-08-16T19:20:44.074Z,3.42
2022-08-16T19:23:12.708Z,3.50
2022-08-16T19:25:47.636Z,3.90
2022-08-16T19:28:51.665Z,3.85
2022-08-16T19:31:21.696Z,6.45
2022-08-16T19:33:54.500Z,4.78
2022-08-16T19:36:31.124Z,4.85
2022-08-16T19:39:04.237Z,4.03
2022-08-16T19:41:32.950Z,3.65
2022-08-16T19:43:59.504Z,3.78
2022-08-16T19:46:28.831Z,3.50
2022-08-16T19:48:55.361Z,3.95
2022-08-16T19:51:21.921Z,4.60
2022-08-16T19:53:48.446Z,4.22
2022-08-16T19:56:15.025Z,4.40
2022-08-16T19:59:02.021Z,3.97
2022-08-16T20:01:28.700Z,4.78
2022-08-16T20:03:55.731Z,4.22
2022-08-16T20:06:37.561Z,4.57
2022-08-16T20:09:05.309Z,4.90
2022-08-16T20:11:31.821Z,4.82
2022-08-16T20:13:59.305Z,4.53
2022-08-16T20:16:26.162Z,4.20
2022-08-16T20:18:52.613Z,4.28
2022-08-16T20:21:19.442Z,4.10
2022-08-16T20:23:46.093Z,4.05
2022-08-16T20:26:12.537Z,3.80
2022-08-16T20:28:52.801Z,3.95
2022-08-16T20:31:23.920Z,4.82
2022-08-16T20:33:51.538Z,4.00
2022-08-16T20:36:18.067Z,4.28
2022-08-16T20:38:47.759Z,4.25
2022-08-16T20:41:15.116Z,4.60
2022-08-16T20:43:41.812Z,4.32
2022-08-16T20:46:08.364Z,4.32
2022-08-16T20:48:34.854Z,4.40
2022-08-16T20:51:01.417Z,4.32
2022-08-16T20:53:27.893Z,3.97
2022-08-16T20:55:54.573Z,4.40
2022-08-16T20:58:21.068Z,4.00
2022-08-16T21:00:47.893Z,4.75
2022-08-16T21:03:14.715Z,4.30
2022-08-16T21:05:41.628Z,4.28
2022-08-16T21:08:27.889Z,4.63
2022-08-16T21:10:57.447Z,4.07
2022-08-16T21:13:25.703Z,3.95
2022-08-16T21:15:52.635Z,3.80
2022-08-16T21:18:19.248Z,4.18
2022-08-16T21:20:45.867Z,5.03
2022-08-16T21:23:12.466Z,4.97
2022-08-16T21:25:47.330Z,4.80
2022-08-16T21:28:40.334Z,4.90
2022-08-16T21:31:17.052Z,4.60
2022-08-16T21:33:44.774Z,4.93
2022-08-16T21:36:35.193Z,4.90
2022-08-16T21:39:02.127Z,5.25
2022-08-16T21:41:30.950Z,4.82
2022-08-16T21:43:57.445Z,5.15
2022-08-16T21:46:24.047Z,4.60
2022-08-16T21:48:50.560Z,5.10
2022-08-16T21:51:17.076Z,4.88
2022-08-16T21:53:44.003Z,4.68
2022-08-16T21:56:14.959Z,4.65
2022-08-16T21:58:45.001Z,4.35
2022-08-16T22:01:14.651Z,4.70
2022-08-16T22:03:42.594Z,5.43
2022-08-16T22:06:13.107Z,6.07
2022-08-16T22:08:49.550Z,5.35
2022-08-16T22:11:23.379Z,6.40
2022-08-16T22:13:58.092Z,5.53
2022-08-16T22:16:34.142Z,5.70
2022-08-16T22:19:01.665Z,5.15
2022-08-16T22:21:28.916Z,4.80
2022-08-16T22:23:58.249Z,5.00
2022-08-16T22:26:39.750Z,4.93
2022-08-16T22:29:16.151Z,5.22
2022-08-16T22:31:43.872Z,5.18
2022-08-16T22:34:10.477Z,4.70
2022-08-16T22:36:37.326Z,4.72
2022-08-16T22:39:07.303Z,4.82
2022-08-16T22:41:35.265Z,4.72
2022-08-16T22:44:04.130Z,5.20
2022-08-16T22:46:30.967Z,5.65
2022-08-16T22:48:57.920Z,5.60
2022-08-16T22:51:26.982Z,6.00
2022-08-16T22:53:53.892Z,6.20
2022-08-16T22:56:21.435Z,7.72
2022-08-16T22:58:48.007Z,10.32
2022-08-16T23:01:16.040Z,9.13
2022-08-16T23:03:43.077Z,9.73
2022-08-16T23:06:10.932Z,9.65
2022-08-16T23:08:40.770Z,7.40
2022-08-16T23:11:22.641Z,6.38
2022-08-16T23:13:54.702Z,6.57
2022-08-16T23:16:33.616Z,10.00
2022-08-16T23:19:06.357Z,11.98
2022-08-16T23:21:33.873Z,14.63
2022-08-16T23:24:00.772Z,12.80
2022-08-16T23:26:44.812Z,10.73
2022-08-16T23:29:22.013Z,9.45
2022-08-16T23:31:56.231Z,8.40
2022-08-16T23:34:22.834Z,7.93
2022-08-16T23:36:49.270Z,6.53
2022-08-16T23:39:15.842Z,6.40
2022-08-16T23:41:43.810Z,6.20
2022-08-16T23:44:55.377Z,5.95
2022-08-16T23:46:57.360Z,6.05
2022-08-16T23:49:57.380Z,5.43
2022-08-16T23:52:10.856Z,5.57
2022-08-16T23:54:37.462Z,5.63
2022-08-16T23:57:04.208Z,7.82
2022-08-16T23:59:31.745Z,18.30
